Time;durP1;ratioP1;P1;durP2;ratioP2;P2;SDS_P1;SDS_P2;PMS_P1;PMS_P2;Temp;Humidity;BMP_temperature;BMP_pressure;BME280_temperature;BME280_humidity;BME280_pressure;Samples;Min_cycle;Max_cycle;Signal;HPM_P1;HPM_P2
2022/10/06 00:00:19;;;;;;;;;;;14.90;99.90;;;;;;5072520;28;19974;-61
2022/10/06 00:02:48;;;;;;;;;;;14.80;99.90;;;;;;5073003;28;19963;-61
2022/10/06 00:05:16;;;;;;;;;;;14.80;99.90;;;;;;5073077;28;19964;-61
2022/10/06 00:07:44;;;;;;;;;;;14.80;99.90;;;;;;5072746;28;20473;-61
2022/10/06 00:10:11;;;;;;;;;;;14.70;99.90;;;;;;5072392;28;19966;-61
2022/10/06 00:12:40;;;;;;;;;;;14.60;99.90;;;;;;5072492;28;20065;-61
2022/10/06 00:15:08;;;;;;;;;;;14.60;99.90;;;;;;5072631;28;20474;-61
2022/10/06 00:17:36;;;;;;;;;;;14.50;99.90;;;;;;5072453;28;19966;-60
2022/10/06 00:20:06;;;;;;;;;;;14.50;99.90;;;;;;5072361;28;20499;-61
2022/10/06 00:22:34;;;;;;;;;;;14.50;99.90;;;;;;5072809;28;19967;-61
2022/10/06 00:25:02;;;;;;;;;;;14.50;99.90;;;;;;5072794;28;19982;-62
2022/10/06 00:27:33;;;;;;;;;;;14.50;99.90;;;;;;5072538;28;19964;-62
2022/10/06 00:30:01;;;;;;;;;;;14.50;99.90;;;;;;5072256;28;19969;-61
2022/10/06 00:32:29;;;;;;;;;;;14.50;99.90;;;;;;5072577;28;20446;-61
2022/10/06 00:34:58;;;;;;;;;;;14.50;99.90;;;;;;5072364;28;19974;-61
2022/10/06 00:37:27;;;;;;;;;;;14.60;99.90;;;;;;5072583;28;19967;-61
2022/10/06 00:39:55;;;;;;;;;;;14.70;99.90;;;;;;5072183;28;19967;-61
2022/10/06 00:42:24;;;;;;;;;;;14.70;99.90;;;;;;5072159;28;20428;-62
2022/10/06 00:44:51;;;;;;;;;;;14.60;99.90;;;;;;5072372;28;19964;-62
2022/10/06 00:47:22;;;;;;;;;;;14.60;99.90;;;;;;5072124;28;19962;-61
2022/10/06 00:49:50;;;;;;;;;;;14.70;99.90;;;;;;5071727;28;19964;-62
2022/10/06 00:52:19;;;;;;;;;;;14.60;99.90;;;;;;5072155;28;19963;-61
2022/10/06 00:54:48;;;;;;;;;;;14.70;99.90;;;;;;5072195;28;19969;-61
2022/10/06 00:57:16;;;;;;;;;;;14.70;99.90;;;;;;5071626;28;19966;-61
2022/10/06 00:59:44;;;;;;;;;;;14.70;99.90;;;;;;5071938;28;19969;-62
2022/10/06 01:02:13;;;;;;;;;;;14.80;99.90;;;;;;5072269;28;20325;-61
2022/10/06 01:04:44;;;;;;;;;;;14.80;99.90;;;;;;5072123;28;20008;-61
2022/10/06 01:07:12;;;;;;;;;;;14.80;99.90;;;;;;5071717;28;20349;-61
2022/10/06 01:09:40;;;;;;;;;;;14.80;99.90;;;;;;5071833;28;19962;-60
2022/10/06 01:12:09;;;;;;;;;;;14.80;99.90;;;;;;5071301;28;19963;-61
2022/10/06 01:14:38;;;;;;;;;;;14.90;99.90;;;;;;5071754;28;20343;-60
2022/10/06 01:17:09;;;;;;;;;;;14.90;99.90;;;;;;5071798;28;19959;-61
2022/10/06 01:19:42;;;;;;;;;;;15.00;99.90;;;;;;5071808;28;20332;-62
2022/10/06 01:22:11;;;;;;;;;;;15.00;99.90;;;;;;5071758;28;19968;-61
2022/10/06 01:24:40;;;;;;;;;;;15.00;99.90;;;;;;5071549;28;19978;-61
2022/10/06 01:27:09;;;;;;;;;;;15.00;99.90;;;;;;5071738;28;20041;-60
2022/10/06 01:29:36;;;;;;;;;;;15.00;99.90;;;;;;5071796;28;19968;-61
2022/10/06 01:32:04;;;;;;;;;;;15.00;99.90;;;;;;5071680;28;19974;-62
2022/10/06 01:34:32;;;;;;;;;;;15.10;99.90;;;;;;5071861;28;20036;-61
2022/10/06 01:37:00;;;;;;;;;;;15.00;99.90;;;;;;5071522;28;19963;-61
2022/10/06 01:39:28;;;;;;;;;;;15.00;99.90;;;;;;5071725;28;19964;-62
2022/10/06 01:41:57;;;;;;;;;;;15.00;99.90;;;;;;5071483;28;19978;-62
2022/10/06 01:44:24;;;;;;;;;;;15.00;99.90;;;;;;5071710;28;19968;-61
2022/10/06 01:46:52;;;;;;;;;;;14.90;99.90;;;;;;5071588;28;20498;-62
2022/10/06 01:49:20;;;;;;;;;;;14.90;99.90;;;;;;5071501;28;20008;-61
2022/10/06 01:51:48;;;;;;;;;;;14.90;99.90;;;;;;5071296;28;20409;-62
2022/10/06 01:54:15;;;;;;;;;;;14.90;99.90;;;;;;5071753;28;19974;-62
2022/10/06 01:56:43;;;;;;;;;;;14.90;99.90;;;;;;5071413;28;19962;-61
2022/10/06 01:59:12;;;;;;;;;;;14.90;99.90;;;;;;5071470;28;19970;-61
2022/10/06 02:01:40;;;;;;;;;;;14.90;99.90;;;;;;5065935;28;19970;-62
2022/10/06 02:04:08;;;;;;;;;;;15.00;99.90;;;;;;5051487;28;20078;-62
2022/10/06 02:06:35;;;;;;;;;;;15.00;99.90;;;;;;5051176;28;20653;-61
2022/10/06 02:09:03;;;;;;;;;;;14.90;99.90;;;;;;5051467;28;19976;-61
2022/10/06 02:11:31;;;;;;;;;;;14.90;99.90;;;;;;5050940;28;20459;-61
2022/10/06 02:14:00;;;;;;;;;;;14.90;99.90;;;;;;5053656;28;20344;-61
2022/10/06 02:16:30;;;;;;;;;;;14.90;99.90;;;;;;5070032;28;20408;-62
2022/10/06 02:18:57;;;;;;;;;;;15.00;99.90;;;;;;5058322;28;19960;-61
2022/10/06 02:21:25;;;;;;;;;;;15.00;99.90;;;;;;5057067;28;19964;-60
2022/10/06 02:23:53;;;;;;;;;;;15.10;99.90;;;;;;5053838;28;19958;-61
2022/10/06 02:26:20;;;;;;;;;;;15.10;99.90;;;;;;5050585;28;20791;-61
2022/10/06 02:28:48;;;;;;;;;;;15.10;99.90;;;;;;5054326;28;20433;-61
2022/10/06 02:31:16;;;;;;;;;;;15.10;99.90;;;;;;5064631;28;20337;-61
2022/10/06 02:33:46;;;;;;;;;;;15.20;99.90;;;;;;5070202;28;19963;-61
2022/10/06 02:36:15;;;;;;;;;;;15.20;99.90;;;;;;5070010;28;19965;-61
2022/10/06 02:38:43;;;;;;;;;;;15.20;99.90;;;;;;5064640;28;19970;-61
2022/10/06 02:41:11;;;;;;;;;;;15.30;99.90;;;;;;5054274;28;20314;-62
2022/10/06 02:43:38;;;;;;;;;;;15.20;99.90;;;;;;5069564;28;19973;-62
2022/10/06 02:46:07;;;;;;;;;;;15.30;99.90;;;;;;5074536;28;19974;-61
2022/10/06 02:48:35;;;;;;;;;;;15.30;99.90;;;;;;5074484;28;20046;-61
2022/10/06 02:51:08;;;;;;;;;;;15.40;99.90;;;;;;5073822;28;19986;-61
2022/10/06 02:53:36;;;;;;;;;;;15.40;99.90;;;;;;5074179;28;20394;-62
2022/10/06 02:56:05;;;;;;;;;;;15.40;99.90;;;;;;5074342;28;19963;-62
2022/10/06 02:58:33;;;;;;;;;;;15.40;99.90;;;;;;5074403;28;19970;-61
2022/10/06 03:01:01;;;;;;;;;;;15.40;99.90;;;;;;5073994;28;19963;-61
2022/10/06 03:03:29;;;;;;;;;;;15.50;99.90;;;;;;5074263;28;19967;-62
2022/10/06 03:06:00;;;;;;;;;;;15.40;99.90;;;;;;5073759;28;19994;-62
2022/10/06 03:08:30;;;;;;;;;;;15.40;99.90;;;;;;5074501;28;19967;-62
2022/10/06 03:11:01;;;;;;;;;;;15.40;99.90;;;;;;5073892;28;19970;-62
2022/10/06 03:13:30;;;;;;;;;;;15.30;99.90;;;;;;5073795;28;19968;-62
2022/10/06 03:15:57;;;;;;;;;;;15.40;99.90;;;;;;5073963;28;19963;-61
2022/10/06 03:18:25;;;;;;;;;;;15.30;99.90;;;;;;5073962;28;20062;-61
2022/10/06 03:20:53;;;;;;;;;;;15.30;99.90;;;;;;5073540;28;20011;-61
2022/10/06 03:23:21;;;;;;;;;;;15.30;99.90;;;;;;5073729;28;19968;-64
2022/10/06 03:25:56;;;;;;;;;;;15.30;99.90;;;;;;5073694;28;19970;-64
2022/10/06 03:28:24;;;;;;;;;;;15.40;99.90;;;;;;5073877;28;19964;-64
2022/10/06 03:30:53;;;;;;;;;;;15.30;99.90;;;;;;5073367;28;19967;-64
2022/10/06 03:33:21;;;;;;;;;;;15.40;99.90;;;;;;5073725;28;19970;-64
2022/10/06 03:35:57;;;;;;;;;;;15.40;99.90;;;;;;5073606;28;19964;-64
2022/10/06 03:38:25;;;;;;;;;;;15.40;99.90;;;;;;5073304;28;19963;-63
2022/10/06 03:41:03;;;;;;;;;;;15.50;99.90;;;;;;5073112;28;19962;-64
2022/10/06 03:43:30;;;;;;;;;;;15.40;99.90;;;;;;5073529;28;19964;-64
2022/10/06 03:45:59;;;;;;;;;;;15.40;99.90;;;;;;5073448;28;20466;-64
2022/10/06 03:48:27;;;;;;;;;;;15.40;99.90;;;;;;5073516;28;19968;-64
2022/10/06 03:50:56;;;;;;;;;;;15.40;99.90;;;;;;5073086;28;19973;-64
2022/10/06 03:53:26;;;;;;;;;;;15.30;99.90;;;;;;5073248;28;19964;-64
2022/10/06 03:55:59;;;;;;;;;;;15.30;99.90;;;;;;5073428;28;19963;-63
2022/10/06 03:58:30;;;;;;;;;;;15.30;99.90;;;;;;5073053;28;19963;-64
2022/10/06 04:00:59;;;;;;;;;;;15.30;99.90;;;;;;5072821;28;19964;-63
2022/10/06 04:03:28;;;;;;;;;;;15.30;99.90;;;;;;5073016;28;19967;-63
2022/10/06 04:05:56;;;;;;;;;;;15.30;99.90;;;;;;5071310;28;19960;-64
2022/10/06 04:08:24;;;;;;;;;;;15.30;99.90;;;;;;5072658;28;19964;-63
2022/10/06 04:10:53;;;;;;;;;;;15.30;99.90;;;;;;5059296;28;20006;-63
2022/10/06 04:13:22;;;;;;;;;;;15.30;99.90;;;;;;5071746;28;20017;-64
2022/10/06 04:15:51;;;;;;;;;;;15.20;99.90;;;;;;5069141;28;20204;-64
2022/10/06 04:18:18;;;;;;;;;;;15.20;99.90;;;;;;5063502;28;19982;-65
2022/10/06 04:20:46;;;;;;;;;;;15.20;99.90;;;;;;5063451;28;19975;-64
2022/10/06 04:23:15;;;;;;;;;;;15.20;99.90;;;;;;5062810;28;19968;-64
2022/10/06 04:25:42;;;;;;;;;;;15.10;99.90;;;;;;5063577;28;20668;-64
2022/10/06 04:28:10;;;;;;;;;;;15.10;99.90;;;;;;5063072;28;20316;-64
2022/10/06 04:30:38;;;;;;;;;;;15.20;99.90;;;;;;5063345;28;20086;-64
2022/10/06 04:33:07;;;;;;;;;;;15.10;99.90;;;;;;5061829;28;19967;-64
2022/10/06 04:35:35;;;;;;;;;;;15.10;99.90;;;;;;5063370;28;19997;-64
2022/10/06 04:38:02;;;;;;;;;;;15.10;99.90;;;;;;5063371;28;19974;-64
2022/10/06 04:40:30;;;;;;;;;;;15.00;99.90;;;;;;5062980;28;19967;-64
2022/10/06 04:42:58;;;;;;;;;;;15.10;99.90;;;;;;5061554;28;19963;-64
2022/10/06 04:45:25;;;;;;;;;;;15.10;99.90;;;;;;5062050;28;19964;-64
2022/10/06 04:47:54;;;;;;;;;;;15.00;99.90;;;;;;5061414;28;19964;-64
2022/10/06 04:50:23;;;;;;;;;;;15.00;99.90;;;;;;5062683;28;19967;-64
2022/10/06 04:52:52;;;;;;;;;;;15.10;99.90;;;;;;5061718;28;19959;-64
2022/10/06 04:55:20;;;;;;;;;;;15.00;99.90;;;;;;5063232;28;20047;-64
2022/10/06 04:57:48;;;;;;;;;;;14.90;99.90;;;;;;5062847;28;19972;-64
2022/10/06 05:00:25;;;;;;;;;;;14.90;99.90;;;;;;5063184;28;19971;-64
2022/10/06 05:02:53;;;;;;;;;;;14.80;99.90;;;;;;5061738;28;20440;-64
2022/10/06 05:05:21;;;;;;;;;;;14.70;99.90;;;;;;5062820;28;20053;-64
2022/10/06 05:07:50;;;;;;;;;;;14.70;99.90;;;;;;5062595;28;19971;-64
2022/10/06 05:10:20;;;;;;;;;;;14.70;99.90;;;;;;5062244;28;20147;-64
2022/10/06 05:12:48;;;;;;;;;;;14.50;99.90;;;;;;5061237;28;20092;-65
2022/10/06 05:15:15;;;;;;;;;;;14.50;99.90;;;;;;5063016;28;19978;-65
2022/10/06 05:17:43;;;;;;;;;;;14.50;99.90;;;;;;5062741;28;19974;-64
2022/10/06 05:20:12;;;;;;;;;;;14.40;99.90;;;;;;5062848;28;19976;-64
2022/10/06 05:22:39;;;;;;;;;;;14.40;99.90;;;;;;5060577;28;20809;-64
2022/10/06 05:25:09;;;;;;;;;;;14.20;99.90;;;;;;5063152;28;19973;-64
2022/10/06 05:27:37;;;;;;;;;;;14.10;99.90;;;;;;5062570;28;20725;-64
2022/10/06 05:30:05;;;;;;;;;;;14.00;99.90;;;;;;5062449;28;19982;-64
2022/10/06 05:32:32;;;;;;;;;;;13.90;99.90;;;;;;5060919;28;20014;-64
2022/10/06 05:35:03;;;;;;;;;;;13.90;99.90;;;;;;5062367;28;19968;-64
2022/10/06 05:37:31;;;;;;;;;;;13.90;99.90;;;;;;5062256;28;19970;-64
2022/10/06 05:39:58;;;;;;;;;;;13.80;99.90;;;;;;5061735;28;19974;-64
2022/10/06 05:42:27;;;;;;;;;;;13.70;99.90;;;;;;5061051;28;19971;-64
2022/10/06 05:44:56;;;;;;;;;;;13.60;99.90;;;;;;5061058;28;20055;-65
2022/10/06 05:47:24;;;;;;;;;;;13.50;99.90;;;;;;5062571;28;19969;-64
2022/10/06 05:49:51;;;;;;;;;;;13.50;99.90;;;;;;5062305;28;19970;-65
2022/10/06 05:52:19;;;;;;;;;;;13.40;99.90;;;;;;5061543;28;20448;-65
2022/10/06 05:54:47;;;;;;;;;;;13.40;99.90;;;;;;5063943;28;19970;-64
2022/10/06 05:57:15;;;;;;;;;;;13.40;99.90;;;;;;5067295;28;19964;-64
2022/10/06 05:59:44;;;;;;;;;;;13.40;99.90;;;;;;5069128;28;20419;-64
2022/10/06 06:02:11;;;;;;;;;;;13.40;99.90;;;;;;5072206;28;19963;-64
2022/10/06 06:04:39;;;;;;;;;;;13.30;99.90;;;;;;5073334;28;20652;-64
2022/10/06 06:07:09;;;;;;;;;;;13.30;99.90;;;;;;5073071;28;20017;-63
2022/10/06 06:09:37;;;;;;;;;;;13.20;99.90;;;;;;5073039;28;20051;-64
2022/10/06 06:12:04;;;;;;;;;;;13.30;99.90;;;;;;5056254;28;19968;-64
2022/10/06 06:17:19;;;;;;;;;;;13.30;99.90;;;;;;5075047;28;19968;-64
2022/10/06 06:19:46;;;;;;;;;;;13.30;99.90;;;;;;5075030;28;20371;-66
2022/10/06 06:22:14;;;;;;;;;;;13.30;99.90;;;;;;5074941;28;20356;-64
2022/10/06 06:24:42;;;;;;;;;;;13.30;99.90;;;;;;5067142;28;20067;-65
2022/10/06 06:27:10;;;;;;;;;;;13.30;99.90;;;;;;5055639;28;19972;-65
2022/10/06 06:29:38;;;;;;;;;;;13.30;99.90;;;;;;5054632;28;19968;-64
2022/10/06 06:32:07;;;;;;;;;;;13.30;99.90;;;;;;5054885;28;20425;-65
2022/10/06 06:34:36;;;;;;;;;;;13.30;99.90;;;;;;5054772;28;20427;-65
2022/10/06 06:37:03;;;;;;;;;;;13.40;99.90;;;;;;5053419;28;19985;-65
2022/10/06 06:39:37;;;;;;;;;;;13.50;99.90;;;;;;5054559;28;20054;-64
2022/10/06 06:42:07;;;;;;;;;;;13.50;99.90;;;;;;5054461;28;19968;-65
2022/10/06 06:44:34;;;;;;;;;;;13.60;99.90;;;;;;5054479;28;19977;-65
2022/10/06 06:47:02;;;;;;;;;;;13.70;99.90;;;;;;5054488;28;19997;-64
2022/10/06 06:49:30;;;;;;;;;;;13.70;99.90;;;;;;5054343;28;19978;-64
2022/10/06 06:52:02;;;;;;;;;;;13.70;99.90;;;;;;5054278;28;20383;-65
2022/10/06 06:54:29;;;;;;;;;;;13.80;99.90;;;;;;5054297;28;19978;-65
2022/10/06 06:56:57;;;;;;;;;;;13.90;99.90;;;;;;5054240;28;20548;-65
2022/10/06 06:59:25;;;;;;;;;;;13.90;99.90;;;;;;5052755;28;19979;-65
2022/10/06 07:01:53;;;;;;;;;;;14.00;99.90;;;;;;5054323;28;19968;-65
2022/10/06 07:04:20;;;;;;;;;;;14.10;99.90;;;;;;5054305;28;19987;-65
2022/10/06 07:06:56;;;;;;;;;;;14.20;99.90;;;;;;5053714;28;19983;-65
2022/10/06 07:09:26;;;;;;;;;;;14.30;99.90;;;;;;5054153;28;20383;-65
2022/10/06 07:11:54;;;;;;;;;;;14.30;99.90;;;;;;5053849;28;20469;-65
2022/10/06 07:14:23;;;;;;;;;;;14.40;99.90;;;;;;5053592;28;19968;-65
2022/10/06 07:25:13;;;;;;;;;;;15.00;99.90;;;;;;5053888;28;19968;-65
2022/10/06 07:27:42;;;;;;;;;;;15.10;99.90;;;;;;5053734;28;20011;-65
2022/10/06 07:30:11;;;;;;;;;;;15.40;99.90;;;;;;5053251;28;19978;-65
2022/10/06 07:32:38;;;;;;;;;;;15.50;99.90;;;;;;5053804;28;19969;-65
2022/10/06 07:35:06;;;;;;;;;;;15.70;99.90;;;;;;5053854;28;19972;-65
2022/10/06 07:37:37;;;;;;;;;;;15.80;99.90;;;;;;5053491;28;20205;-65
2022/10/06 07:40:05;;;;;;;;;;;16.00;99.90;;;;;;5053257;28;19968;-65
2022/10/06 07:42:47;;;;;;;;;;;16.20;99.90;;;;;;5053793;28;19968;-65
2022/10/06 07:48:02;;;;;;;;;;;16.30;99.90;;;;;;5053668;28;19966;-65
2022/10/06 07:50:29;;;;;;;;;;;16.50;99.90;;;;;;5052952;28;19973;-65
2022/10/06 07:53:00;;;;;;;;;;;16.60;99.90;;;;;;5053228;28;19967;-65
2022/10/06 07:55:27;;;;;;;;;;;16.60;99.90;;;;;;5053248;28;19973;-65
2022/10/06 07:57:56;;;;;;;;;;;16.50;99.90;;;;;;5053189;28;20378;-65
2022/10/06 08:00:25;;;;;;;;;;;16.40;99.90;;;;;;5053093;28;19970;-66
2022/10/06 08:02:54;;;;;;;;;;;16.30;99.90;;;;;;5052867;28;20010;-65
2022/10/06 08:05:22;;;;;;;;;;;16.40;99.90;;;;;;5052841;28;20418;-65
2022/10/06 08:07:51;;;;;;;;;;;16.60;99.90;;;;;;5052899;28;20154;-65
2022/10/06 08:10:19;;;;;;;;;;;16.70;99.90;;;;;;5053027;28;19973;-66
2022/10/06 08:12:47;;;;;;;;;;;16.80;99.90;;;;;;5052828;28;20006;-65
2022/10/06 08:15:17;;;;;;;;;;;17.00;99.90;;;;;;5052932;28;20437;-65
2022/10/06 08:17:45;;;;;;;;;;;17.10;99.90;;;;;;5052662;28;20102;-65
2022/10/06 08:20:13;;;;;;;;;;;17.20;99.90;;;;;;5052639;28;19974;-65
2022/10/06 08:22:40;;;;;;;;;;;17.20;99.90;;;;;;5052834;28;19975;-66
2022/10/06 08:25:09;;;;;;;;;;;17.40;99.90;;;;;;5051546;28;20065;-65
2022/10/06 08:27:39;;;;;;;;;;;17.60;99.90;;;;;;5052574;28;19975;-65
2022/10/06 08:30:07;;;;;;;;;;;18.00;99.90;;;;;;5052806;28;19978;-65
2022/10/06 08:32:36;;;;;;;;;;;18.30;99.90;;;;;;5052597;28;19977;-66
2022/10/06 08:35:04;;;;;;;;;;;18.60;99.90;;;;;;5052475;28;19966;-65
2022/10/06 08:37:32;;;;;;;;;;;18.90;99.90;;;;;;5052511;28;19973;-66
2022/10/06 08:40:00;;;;;;;;;;;19.00;99.90;;;;;;5052156;28;19977;-65
2022/10/06 08:42:32;;;;;;;;;;;19.40;99.90;;;;;;5052276;28;20328;-65
2022/10/06 08:45:02;;;;;;;;;;;19.60;99.90;;;;;;5052646;28;20342;-65
2022/10/06 08:47:32;;;;;;;;;;;19.90;99.90;;;;;;5052364;28;19967;-63
2022/10/06 08:50:03;;;;;;;;;;;20.20;99.90;;;;;;5052017;28;19993;-63
2022/10/06 08:52:45;;;;;;;;;;;20.50;99.90;;;;;;5052245;28;19977;-63
2022/10/06 08:55:16;;;;;;;;;;;20.70;99.90;;;;;;5052188;28;19973;-63
2022/10/06 08:57:50;;;;;;;;;;;20.20;99.90;;;;;;5052091;28;19967;-63
2022/10/06 09:00:18;;;;;;;;;;;20.50;99.90;;;;;;5052008;28;19971;-63
2022/10/06 09:02:49;;;;;;;;;;;20.60;99.90;;;;;;5052246;28;19974;-63
2022/10/06 09:05:25;;;;;;;;;;;20.90;99.90;;;;;;5051583;28;19967;-62
2022/10/06 09:07:58;;;;;;;;;;;21.00;99.90;;;;;;5052125;28;19977;-64
2022/10/06 09:10:34;;;;;;;;;;;21.00;99.90;;;;;;5051750;28;19966;-63
2022/10/06 09:13:05;;;;;;;;;;;21.10;99.90;;;;;;5051919;28;19967;-63
2022/10/06 09:15:35;;;;;;;;;;;21.40;99.90;;;;;;5051940;28;19966;-63
2022/10/06 09:18:09;;;;;;;;;;;21.60;99.90;;;;;;5051378;28;19971;-64
2022/10/06 09:20:41;;;;;;;;;;;21.80;99.50;;;;;;5051898;28;19967;-63
2022/10/06 09:23:14;;;;;;;;;;;21.70;99.60;;;;;;5051905;28;20006;-63
2022/10/06 09:25:41;;;;;;;;;;;22.00;99.30;;;;;;5051826;28;20061;-63
2022/10/06 09:28:13;;;;;;;;;;;21.70;99.40;;;;;;5051321;28;20057;-64
2022/10/06 09:30:42;;;;;;;;;;;22.00;99.60;;;;;;5051323;28;19975;-63
2022/10/06 09:33:15;;;;;;;;;;;22.10;98.10;;;;;;5051532;28;20343;-62
2022/10/06 09:36:05;;;;;;;;;;;21.90;99.90;;;;;;5052803;28;19967;-63
2022/10/06 09:38:47;;;;;;;;;;;22.30;99.00;;;;;;5056049;28;19967;-63
2022/10/06 09:41:16;;;;;;;;;;;22.40;98.30;;;;;;5055394;28;20454;-63
2022/10/06 09:43:51;;;;;;;;;;;22.40;97.50;;;;;;5055631;28;19970;-63
2022/10/06 09:46:20;;;;;;;;;;;22.10;97.20;;;;;;5055499;28;19971;-64
2022/10/06 09:48:48;;;;;;;;;;;21.90;97.50;;;;;;5055813;28;19982;-63
2022/10/06 09:51:16;;;;;;;;;;;21.90;97.70;;;;;;5055091;28;19974;-63
2022/10/06 09:53:44;;;;;;;;;;;21.60;97.70;;;;;;5055488;28;20439;-63
2022/10/06 09:56:17;;;;;;;;;;;21.80;97.40;;;;;;5055625;28;19981;-63
2022/10/06 09:58:56;;;;;;;;;;;22.10;98.00;;;;;;5056438;28;20016;-63
2022/10/06 10:01:24;;;;;;;;;;;21.90;97.90;;;;;;5055083;28;19973;-63
2022/10/06 10:03:53;;;;;;;;;;;21.70;98.00;;;;;;5055119;28;19978;-63
2022/10/06 10:06:41;;;;;;;;;;;21.80;98.40;;;;;;5054593;28;19967;-63
2022/10/06 10:09:28;;;;;;;;;;;21.90;98.10;;;;;;5055333;28;20355;-62
2022/10/06 10:12:29;;;;;;;;;;;22.00;97.90;;;;;;5055178;28;20435;-63
2022/10/06 10:14:59;;;;;;;;;;;22.10;98.60;;;;;;5054653;28;19981;-63
2022/10/06 10:17:36;;;;;;;;;;;22.20;97.30;;;;;;5055041;28;19971;-63
2022/10/06 10:20:07;;;;;;;;;;;22.50;97.10;;;;;;5054964;28;20053;-63
2022/10/06 10:22:35;;;;;;;;;;;22.50;98.20;;;;;;5054899;28;19967;-63
2022/10/06 10:25:10;;;;;;;;;;;22.70;96.80;;;;;;5054915;28;19975;-63
2022/10/06 10:27:43;;;;;;;;;;;22.70;96.40;;;;;;5054800;28;19967;-63
2022/10/06 10:30:13;;;;;;;;;;;22.80;97.20;;;;;;5054549;28;20050;-63
2022/10/06 10:32:52;;;;;;;;;;;22.90;96.30;;;;;;5055055;28;19971;-63
2022/10/06 10:35:22;;;;;;;;;;;23.40;95.60;;;;;;5054854;28;19967;-63
2022/10/06 10:37:53;;;;;;;;;;;23.60;94.50;;;;;;5054904;28;20001;-63
2022/10/06 10:40:28;;;;;;;;;;;23.50;94.50;;;;;;5054354;28;19968;-63
2022/10/06 10:43:00;;;;;;;;;;;23.20;94.10;;;;;;5054916;28;19966;-63
2022/10/06 10:45:32;;;;;;;;;;;23.10;93.70;;;;;;5054489;28;20348;-62
2022/10/06 10:48:01;;;;;;;;;;;23.20;93.70;;;;;;5053598;28;19970;-63
2022/10/06 10:50:31;;;;;;;;;;;23.30;93.70;;;;;;5054107;28;19966;-63
2022/10/06 10:53:04;;;;;;;;;;;23.10;93.80;;;;;;5054629;28;19973;-63
2022/10/06 10:55:35;;;;;;;;;;;23.50;93.60;;;;;;5054384;28;19968;-62
2022/10/06 10:58:11;;;;;;;;;;;23.90;93.30;;;;;;5054095;28;19978;-63
2022/10/06 11:00:42;;;;;;;;;;;23.80;92.40;;;;;;5054191;28;19994;-63
2022/10/06 11:03:10;;;;;;;;;;;23.40;93.20;;;;;;5054796;28;19968;-63
2022/10/06 11:05:46;;;;;;;;;;;22.80;93.20;;;;;;5053951;28;20432;-63
2022/10/06 11:08:21;;;;;;;;;;;22.60;93.90;;;;;;5033892;28;19967;-63
2022/10/06 11:10:50;;;;;;;;;;;22.90;93.60;;;;;;5033956;28;20141;-63
2022/10/06 11:13:25;;;;;;;;;;;23.30;93.20;;;;;;5034117;28;19974;-63
2022/10/06 11:15:57;;;;;;;;;;;23.30;93.70;;;;;;5034294;28;20022;-62
2022/10/06 11:18:31;;;;;;;;;;;23.40;93.90;;;;;;5033743;28;20424;-64
2022/10/06 11:21:05;;;;;;;;;;;23.80;93.80;;;;;;5033853;28;19968;-63
2022/10/06 11:23:40;;;;;;;;;;;24.10;93.00;;;;;;5033965;28;20181;-63
2022/10/06 11:26:14;;;;;;;;;;;23.90;92.60;;;;;;5033889;28;19980;-63
2022/10/06 11:28:45;;;;;;;;;;;23.80;92.50;;;;;;5033554;28;19969;-63
2022/10/06 11:31:20;;;;;;;;;;;23.70;92.90;;;;;;5033299;28;20448;-63
2022/10/06 11:33:51;;;;;;;;;;;23.80;93.20;;;;;;5033850;28;19972;-62
2022/10/06 11:36:22;;;;;;;;;;;24.30;92.30;;;;;;5033648;28;19972;-65
2022/10/06 11:38:55;;;;;;;;;;;24.10;92.40;;;;;;5033447;28;20008;-66
2022/10/06 11:41:25;;;;;;;;;;;23.40;92.70;;;;;;5033247;28;19972;-65
2022/10/06 11:43:59;;;;;;;;;;;23.10;93.40;;;;;;5034166;28;19973;-66
2022/10/06 11:46:31;;;;;;;;;;;23.10;94.10;;;;;;5033350;28;19979;-65
2022/10/06 11:49:18;;;;;;;;;;;23.50;93.60;;;;;;5033565;28;19983;-66
2022/10/06 11:51:46;;;;;;;;;;;24.10;92.30;;;;;;5033113;28;20054;-65
2022/10/06 11:54:28;;;;;;;;;;;24.20;92.70;;;;;;5033555;28;19972;-66
2022/10/06 11:56:56;;;;;;;;;;;23.90;92.90;;;;;;5033433;28;19976;-66
2022/10/06 11:59:27;;;;;;;;;;;24.00;92.20;;;;;;5032943;28;20403;-66
2022/10/06 12:01:58;;;;;;;;;;;24.20;92.10;;;;;;5033393;28;20063;-64
2022/10/06 12:04:26;;;;;;;;;;;24.40;91.30;;;;;;5033414;28;19973;-63
2022/10/06 12:06:55;;;;;;;;;;;24.50;91.60;;;;;;5042360;28;19971;-64
2022/10/06 12:09:31;;;;;;;;;;;24.90;90.90;;;;;;5052799;28;20016;-64
2022/10/06 12:11:59;;;;;;;;;;;25.30;90.90;;;;;;5053224;28;20385;-63
2022/10/06 12:14:33;;;;;;;;;;;25.10;90.00;;;;;;5052786;28;19972;-63
2022/10/06 12:17:23;;;;;;;;;;;24.70;90.40;;;;;;5052570;28;19972;-63
2022/10/06 12:19:54;;;;;;;;;;;24.60;91.20;;;;;;5052426;28;20496;-63
2022/10/06 12:22:25;;;;;;;;;;;24.90;90.60;;;;;;5053190;28;20424;-63
2022/10/06 12:24:57;;;;;;;;;;;25.40;91.30;;;;;;5052735;28;19968;-63
2022/10/06 12:27:29;;;;;;;;;;;25.50;88.40;;;;;;5094114;22;20442;-66
2022/10/06 12:30:04;;;;;;;;;;;25.80;89.40;;;;;;5071684;28;19975;-66
2022/10/06 12:32:37;;;;;;;;;;;26.10;89.30;;;;;;5072710;28;20066;-66
2022/10/06 12:35:23;;;;;;;;;;;26.50;86.10;;;;;;5072609;28;20364;-66
2022/10/06 12:37:51;;;;;;;;;;;26.60;90.00;;;;;;5052369;28;19968;-66
2022/10/06 12:40:40;;;;;;;;;;;26.20;84.40;;;;;;5051991;28;19968;-66
2022/10/06 12:43:26;;;;;;;;;;;25.90;84.70;;;;;;5052430;28;19967;-66
2022/10/06 12:45:57;;;;;;;;;;;25.40;85.20;;;;;;5052423;28;19976;-66
2022/10/06 12:48:28;;;;;;;;;;;25.60;87.20;;;;;;5052154;28;19977;-66
2022/10/06 12:50:58;;;;;;;;;;;26.00;85.20;;;;;;5051802;28;19968;-66
2022/10/06 12:53:31;;;;;;;;;;;26.30;85.00;;;;;;5052277;28;19968;-66
2022/10/06 12:56:01;;;;;;;;;;;26.50;84.30;;;;;;5052187;28;19980;-67
2022/10/06 12:58:31;;;;;;;;;;;27.10;83.20;;;;;;5052069;28;20360;-67
2022/10/06 13:01:01;;;;;;;;;;;27.30;81.20;;;;;;5051687;28;19968;-66
2022/10/06 13:03:29;;;;;;;;;;;27.50;81.30;;;;;;5052321;28;20395;-66
2022/10/06 13:05:57;;;;;;;;;;;27.10;81.80;;;;;;5051693;28;19973;-66
2022/10/06 13:08:26;;;;;;;;;;;27.00;81.20;;;;;;5051989;28;19968;-67
2022/10/06 13:11:09;;;;;;;;;;;26.70;82.00;;;;;;5051139;28;20026;-66
2022/10/06 13:13:37;;;;;;;;;;;26.70;81.30;;;;;;5051987;28;19972;-67
2022/10/06 13:16:08;;;;;;;;;;;27.00;82.80;;;;;;5051890;28;20060;-65
2022/10/06 13:18:36;;;;;;;;;;;27.10;81.50;;;;;;5051971;28;19972;-67
2022/10/06 13:21:03;;;;;;;;;;;27.20;79.00;;;;;;5051353;28;19979;-66
2022/10/06 13:23:32;;;;;;;;;;;27.10;80.00;;;;;;5051636;28;19979;-67
2022/10/06 13:26:01;;;;;;;;;;;27.20;80.00;;;;;;5051505;28;20243;-67
2022/10/06 13:28:30;;;;;;;;;;;27.50;79.70;;;;;;5052099;28;19968;-67
2022/10/06 13:30:59;;;;;;;;;;;27.80;79.00;;;;;;5051292;28;19972;-67
2022/10/06 13:33:35;;;;;;;;;;;27.90;76.90;;;;;;5051808;28;20067;-66
2022/10/06 13:36:02;;;;;;;;;;;27.80;76.80;;;;;;5051383;28;19973;-67
2022/10/06 13:38:33;;;;;;;;;;;27.60;77.50;;;;;;5051493;28;19975;-64
2022/10/06 13:41:02;;;;;;;;;;;26.90;77.10;;;;;;5051657;28;19978;-67
2022/10/06 13:43:30;;;;;;;;;;;26.70;78.90;;;;;;5051544;28;19974;-67
2022/10/06 13:46:00;;;;;;;;;;;26.70;77.60;;;;;;5051578;28;19969;-66
2022/10/06 13:48:29;;;;;;;;;;;26.50;75.90;;;;;;5051412;28;19968;-67
2022/10/06 13:50:58;;;;;;;;;;;26.60;77.30;;;;;;5051431;28;19968;-66
2022/10/06 13:53:32;;;;;;;;;;;26.60;77.70;;;;;;5051460;28;20059;-67
2022/10/06 13:56:00;;;;;;;;;;;26.50;76.40;;;;;;5051268;28;20098;-66
2022/10/06 13:58:28;;;;;;;;;;;26.20;75.60;;;;;;5051464;28;19968;-65
2022/10/06 14:00:59;;;;;;;;;;;26.50;76.00;;;;;;5051275;28;20079;-67
2022/10/06 14:03:32;;;;;;;;;;;26.60;76.10;;;;;;5051429;28;20014;-67
2022/10/06 14:06:14;;;;;;;;;;;26.80;75.80;;;;;;5051125;28;20059;-67
2022/10/06 14:08:44;;;;;;;;;;;26.80;75.00;;;;;;5051369;28;19976;-67
2022/10/06 14:11:12;;;;;;;;;;;26.90;76.50;;;;;;5051402;28;20341;-66
2022/10/06 14:13:46;;;;;;;;;;;26.90;75.70;;;;;;5051319;28;19968;-67
2022/10/06 14:16:19;;;;;;;;;;;26.80;75.50;;;;;;5051271;28;19979;-67
2022/10/06 14:18:53;;;;;;;;;;;26.40;75.10;;;;;;5051372;28;19969;-67
2022/10/06 14:21:31;;;;;;;;;;;25.90;75.30;;;;;;5050974;28;19972;-66
2022/10/06 14:23:59;;;;;;;;;;;25.00;77.80;;;;;;5055321;28;20058;-66
2022/10/06 14:26:35;;;;;;;;;;;24.10;79.30;;;;;;5055048;28;19974;-66
2022/10/06 14:29:02;;;;;;;;;;;23.40;78.70;;;;;;5055062;28;19979;-66
2022/10/06 14:31:32;;;;;;;;;;;23.00;79.60;;;;;;5054978;28;20014;-66
2022/10/06 14:34:00;;;;;;;;;;;22.80;80.70;;;;;;5054855;28;20334;-66
2022/10/06 14:36:29;;;;;;;;;;;22.60;81.10;;;;;;5054854;28;19968;-66
2022/10/06 14:38:59;;;;;;;;;;;22.30;82.60;;;;;;5054900;28;19979;-67
2022/10/06 14:41:28;;;;;;;;;;;22.40;82.50;;;;;;5054228;28;20452;-66
2022/10/06 14:43:56;;;;;;;;;;;22.70;82.00;;;;;;5054814;28;20356;-66
2022/10/06 14:46:24;;;;;;;;;;;23.10;82.10;;;;;;5054520;28;19975;-67